createdAt,value
2022-11-24T00:01:40.333Z,1.80
2022-11-24T00:05:02.321Z,1.70
2022-11-24T00:08:24.324Z,1.70
2022-11-24T00:11:46.584Z,1.70
2022-11-24T00:15:09.102Z,1.80
2022-11-24T00:18:31.352Z,1.80
2022-11-24T00:21:53.366Z,1.70
2022-11-24T00:25:15.528Z,1.60
2022-11-24T00:28:39.018Z,1.50
2022-11-24T00:32:03.038Z,1.40
2022-11-24T00:35:25.073Z,1.40
2022-11-24T00:38:47.550Z,1.20
2022-11-24T00:42:09.545Z,1.20
2022-11-24T00:45:31.616Z,1.20
2022-11-24T00:48:54.288Z,1.20
2022-11-24T00:52:16.470Z,1.20
2022-11-24T00:55:38.443Z,1.20
2022-11-24T00:59:00.460Z,1.10
2022-11-24T01:02:22.555Z,1.10
2022-11-24T01:05:44.538Z,1.10
2022-11-24T01:09:06.535Z,1.10
2022-11-24T01:12:28.881Z,1.10
2022-11-24T01:15:50.954Z,1.10
2022-11-24T01:19:13.046Z,1.10
2022-11-24T01:22:35.251Z,1.10
2022-11-24T01:25:57.232Z,1.10
2022-11-24T01:29:19.240Z,1.00
2022-11-24T01:32:41.280Z,0.90
2022-11-24T01:36:04.354Z,0.90
2022-11-24T01:39:26.381Z,1.00
2022-11-24T01:42:53.477Z,1.10
2022-11-24T01:46:27.167Z,1.10
2022-11-24T01:49:54.177Z,1.10
2022-11-24T01:53:16.158Z,1.10
2022-11-24T01:56:41.915Z,1.10
2022-11-24T02:00:10.941Z,1.00
2022-11-24T02:03:38.639Z,1.00
2022-11-24T02:07:03.506Z,0.90
2022-11-24T02:10:25.608Z,1.00
2022-11-24T02:13:48.834Z,1.10
2022-11-24T02:17:10.890Z,1.00
2022-11-24T02:20:34.211Z,0.90
2022-11-24T02:24:28.494Z,0.90
2022-11-24T02:27:54.266Z,1.00
2022-11-24T02:31:16.542Z,1.00
2022-11-24T02:34:38.641Z,1.00
2022-11-24T02:38:00.633Z,0.90
2022-11-24T02:41:25.603Z,0.80
2022-11-24T02:44:52.645Z,0.80
2022-11-24T02:48:15.792Z,0.80
2022-11-24T02:51:37.730Z,0.80
2022-11-24T02:54:59.765Z,0.90
2022-11-24T02:58:22.136Z,0.90
2022-11-24T03:01:44.201Z,0.90
2022-11-24T03:05:06.962Z,0.80
2022-11-24T03:08:29.031Z,0.70
2022-11-24T03:11:50.991Z,0.60
2022-11-24T03:15:12.953Z,0.60
2022-11-24T03:18:34.867Z,0.60
2022-11-24T03:21:56.995Z,0.60
2022-11-24T03:25:19.568Z,0.60
2022-11-24T03:28:42.125Z,0.70
2022-11-24T03:32:04.450Z,0.70
2022-11-24T03:35:26.485Z,0.70
2022-11-24T03:38:48.502Z,0.60
2022-11-24T03:42:10.540Z,0.50
2022-11-24T03:45:47.808Z,0.50
2022-11-24T03:49:10.097Z,0.50
2022-11-24T03:52:32.047Z,0.60
2022-11-24T03:55:54.911Z,0.60
2022-11-24T03:59:17.176Z,0.50
2022-11-24T04:02:39.193Z,0.40
2022-11-24T04:06:01.216Z,0.30
2022-11-24T04:09:23.162Z,0.20
2022-11-24T04:12:45.120Z,0.20
2022-11-24T04:16:07.439Z,0.20
2022-11-24T04:19:29.510Z,0.20
2022-11-24T04:22:52.093Z,0.20
2022-11-24T04:26:14.765Z,0.20
2022-11-24T04:29:36.754Z,0.20
2022-11-24T04:32:59.236Z,0.10
2022-11-24T04:36:21.415Z,0.10
2022-11-24T04:39:43.965Z,0.10
2022-11-24T04:43:05.921Z,0.20
2022-11-24T04:46:27.972Z,0.20
2022-11-24T04:49:50.752Z,0.40
2022-11-24T04:53:13.660Z,0.30
2022-11-24T04:56:35.779Z,0.20
2022-11-24T04:59:57.833Z,0.10
2022-11-24T05:03:19.803Z,0.00
2022-11-24T05:06:42.301Z,0.00
2022-11-24T05:10:23.165Z,0.00
2022-11-24T05:13:46.291Z,-0.10
2022-11-24T05:17:08.457Z,0.00
2022-11-24T05:20:30.406Z,0.00
2022-11-24T05:23:52.439Z,0.10
2022-11-24T05:27:14.403Z,0.10
2022-11-24T05:30:39.944Z,0.00
2022-11-24T05:34:01.966Z,0.00
2022-11-24T05:37:25.753Z,-0.10
2022-11-24T05:40:48.022Z,-0.10
2022-11-24T05:44:09.984Z,-0.10
2022-11-24T05:47:32.346Z,-0.20
2022-11-24T05:50:58.674Z,-0.20
2022-11-24T05:54:20.674Z,-0.20
2022-11-24T05:57:43.142Z,-0.20
2022-11-24T06:01:08.180Z,-0.10
2022-11-24T06:04:30.203Z,-0.10
2022-11-24T06:07:52.552Z,-0.20
2022-11-24T06:11:20.549Z,-0.30
2022-11-24T06:14:42.592Z,-0.30
2022-11-24T06:18:04.758Z,-0.40
2022-11-24T06:21:26.777Z,-0.40
2022-11-24T06:24:50.648Z,-0.40
2022-11-24T06:28:12.632Z,-0.40
2022-11-24T06:31:35.014Z,-0.20
2022-11-24T06:35:00.041Z,-0.10
2022-11-24T06:38:24.488Z,0.00
2022-11-24T06:41:50.300Z,0.10
2022-11-24T06:45:12.229Z,0.30
2022-11-24T06:48:34.319Z,0.40
2022-11-24T06:51:56.261Z,0.50
2022-11-24T06:55:18.249Z,0.50
2022-11-24T06:58:45.589Z,0.50
2022-11-24T07:02:08.809Z,0.60
2022-11-24T07:05:30.807Z,0.80
2022-11-24T07:08:53.229Z,0.90
2022-11-24T07:12:15.311Z,1.10
2022-11-24T07:15:37.306Z,1.40
2022-11-24T07:18:59.529Z,1.90
2022-11-24T07:22:21.544Z,3.10
2022-11-24T07:25:43.574Z,4.50
2022-11-24T07:29:05.691Z,5.90
2022-11-24T07:32:27.752Z,6.60
2022-11-24T07:35:49.871Z,7.50
2022-11-24T07:39:12.078Z,8.50
2022-11-24T07:42:34.388Z,9.00
2022-11-24T07:45:56.469Z,8.90
2022-11-24T07:49:19.003Z,9.30
2022-11-24T07:52:40.981Z,9.80
2022-11-24T07:56:05.596Z,10.50
2022-11-24T07:59:27.574Z,11.10
2022-11-24T08:02:49.555Z,12.00
2022-11-24T08:06:33.868Z,12.60
2022-11-24T08:09:54.540Z,12.90
2022-11-24T08:13:16.562Z,13.10
2022-11-24T08:16:39.504Z,13.50
2022-11-24T08:20:01.520Z,13.90
2022-11-24T08:23:23.586Z,14.20
2022-11-24T08:26:45.576Z,14.50
2022-11-24T08:30:08.323Z,15.10
2022-11-24T08:33:30.875Z,15.30
2022-11-24T08:36:52.883Z,15.70
2022-11-24T08:40:15.050Z,15.90
2022-11-24T08:43:37.436Z,16.20
2022-11-24T08:46:59.430Z,16.70
2022-11-24T08:50:23.178Z,17.00
2022-11-24T08:53:45.214Z,17.30
2022-11-24T08:57:07.254Z,17.40
2022-11-24T09:00:29.334Z,17.70
2022-11-24T09:03:52.232Z,18.00
2022-11-24T09:07:14.425Z,18.70
2022-11-24T09:10:36.942Z,18.80
2022-11-24T09:13:58.926Z,19.20
2022-11-24T09:17:20.943Z,19.10
2022-11-24T09:20:42.997Z,19.00
2022-11-24T09:24:07.457Z,18.90
2022-11-24T09:27:29.425Z,17.80
2022-11-24T09:30:51.450Z,16.80
2022-11-24T09:34:15.691Z,17.20
2022-11-24T09:37:37.711Z,17.00
2022-11-24T09:41:17.914Z,16.00
2022-11-24T09:45:07.198Z,15.70
2022-11-24T09:48:44.091Z,15.80
2022-11-24T09:52:12.880Z,15.80
2022-11-24T09:55:39.353Z,15.60
2022-11-24T09:59:26.378Z,15.50
2022-11-24T10:02:50.021Z,15.80
2022-11-24T10:06:19.622Z,16.00
2022-11-24T10:10:38.162Z,16.00
2022-11-24T10:14:26.905Z,16.40
2022-11-24T10:18:09.373Z,16.90
2022-11-24T10:21:52.264Z,16.40
2022-11-24T10:25:23.739Z,15.80
2022-11-24T10:28:56.204Z,15.80
2022-11-24T10:32:29.841Z,15.70
2022-11-24T10:35:55.022Z,15.10
2022-11-24T10:39:32.097Z,15.20
2022-11-24T10:42:54.244Z,15.10
2022-11-24T10:46:26.375Z,15.10
2022-11-24T10:50:22.108Z,14.70
2022-11-24T10:53:46.189Z,14.60
2022-11-24T10:57:08.386Z,14.40
2022-11-24T11:00:31.954Z,14.10
2022-11-24T11:03:56.559Z,14.20
2022-11-24T11:07:21.506Z,14.40
2022-11-24T11:10:44.788Z,14.30
2022-11-24T11:14:10.048Z,14.30
2022-11-24T11:17:38.427Z,14.10
2022-11-24T11:21:02.540Z,13.70
2022-11-24T11:24:24.990Z,13.70
2022-11-24T11:27:48.811Z,13.40
2022-11-24T11:31:22.101Z,13.30
2022-11-24T11:34:45.269Z,13.20
2022-11-24T11:38:07.877Z,12.90
2022-11-24T11:41:43.512Z,12.80
2022-11-24T11:45:05.839Z,12.50
2022-11-24T11:48:42.265Z,12.30
2022-11-24T11:52:23.883Z,12.20
2022-11-24T11:56:09.973Z,12.10
2022-11-24T11:59:46.791Z,12.10
2022-11-24T12:03:34.845Z,12.20
2022-11-24T12:07:08.820Z,12.10
2022-11-24T12:10:50.852Z,12.10
2022-11-24T12:14:47.012Z,12.10
2022-11-24T12:22:18.067Z,12.10
2022-11-24T12:25:46.451Z,12.10
2022-11-24T12:29:24.154Z,12.00
2022-11-24T12:33:18.198Z,12.00
2022-11-24T12:37:03.866Z,12.00
2022-11-24T12:40:58.077Z,11.90
2022-11-24T12:45:07.574Z,12.00
2022-11-24T12:48:51.074Z,11.90
2022-11-24T12:52:18.932Z,11.90
2022-11-24T12:55:42.344Z,11.90
2022-11-24T12:59:39.790Z,11.90
2022-11-24T13:03:05.014Z,11.90
2022-11-24T13:06:49.315Z,11.90
2022-11-24T13:14:36.378Z,11.80
2022-11-24T13:21:45.580Z,11.80
2022-11-24T13:25:20.264Z,11.80
2022-11-24T13:29:18.006Z,11.80
2022-11-24T13:32:46.757Z,11.80
2022-11-24T13:36:11.682Z,11.80
2022-11-24T13:39:54.626Z,11.80
2022-11-24T13:43:16.559Z,11.90
2022-11-24T13:47:31.961Z,11.90
2022-11-24T13:50:54.181Z,11.80
2022-11-24T13:54:16.182Z,12.00
2022-11-24T13:57:49.863Z,12.00
2022-11-24T14:01:11.947Z,12.10
2022-11-24T14:04:39.538Z,12.10
2022-11-24T14:08:02.604Z,11.90
2022-11-24T14:11:26.255Z,11.80
2022-11-24T14:14:50.488Z,11.70
2022-11-24T14:18:21.672Z,11.60
2022-11-24T14:21:45.120Z,11.60
2022-11-24T14:25:21.307Z,11.50
2022-11-24T14:28:45.493Z,11.40
2022-11-24T14:32:16.872Z,11.20
2022-11-24T14:35:53.113Z,10.90
2022-11-24T14:39:20.585Z,10.80
2022-11-24T14:42:51.222Z,10.80
2022-11-24T14:46:20.400Z,10.70
2022-11-24T14:49:43.541Z,10.50
2022-11-24T14:53:14.083Z,10.30
2022-11-24T14:56:40.171Z,10.20
2022-11-24T15:00:19.602Z,10.10
2022-11-24T15:03:41.723Z,10.00
2022-11-24T15:07:26.480Z,9.90
2022-11-24T15:10:48.888Z,9.70
2022-11-24T15:15:01.350Z,9.60
2022-11-24T15:19:00.260Z,9.40
2022-11-24T15:22:36.983Z,9.00
2022-11-24T15:26:18.853Z,8.80
2022-11-24T15:29:40.882Z,8.50
2022-11-24T15:33:03.289Z,8.30
2022-11-24T15:36:25.228Z,8.10
2022-11-24T15:39:47.408Z,7.80
2022-11-24T15:43:21.420Z,7.60
2022-11-24T15:46:43.409Z,7.30
2022-11-24T15:50:06.094Z,7.20
2022-11-24T15:53:44.253Z,7.00
2022-11-24T15:57:06.174Z,6.90
2022-11-24T16:00:28.326Z,6.70
2022-11-24T16:03:50.415Z,6.50
2022-11-24T16:07:12.940Z,6.50
2022-11-24T16:10:36.404Z,6.30
2022-11-24T16:13:58.455Z,6.20
2022-11-24T16:17:20.482Z,6.10
2022-11-24T16:20:42.502Z,6.00
2022-11-24T16:24:04.624Z,5.90
2022-11-24T16:27:26.605Z,5.80
2022-11-24T16:30:50.155Z,5.80
2022-11-24T16:34:12.087Z,5.70
2022-11-24T16:37:34.252Z,5.70
2022-11-24T16:40:56.934Z,5.60
2022-11-24T16:44:18.996Z,5.50
2022-11-24T16:47:43.020Z,5.50
2022-11-24T16:51:10.114Z,5.40
2022-11-24T16:54:32.451Z,5.40
2022-11-24T16:57:54.744Z,5.30
2022-11-24T17:01:16.768Z,5.20
2022-11-24T17:04:38.891Z,5.10
2022-11-24T17:08:00.874Z,5.10
2022-11-24T17:11:24.637Z,5.10
2022-11-24T17:15:03.389Z,5.10
2022-11-24T17:18:28.581Z,5.00
2022-11-24T17:21:50.623Z,4.90
2022-11-24T17:25:13.073Z,4.90
2022-11-24T17:28:36.088Z,4.80
2022-11-24T17:31:58.200Z,4.70
2022-11-24T17:35:20.312Z,4.60
2022-11-24T17:38:42.536Z,4.60
2022-11-24T17:42:04.707Z,4.50
2022-11-24T17:45:28.244Z,4.50
2022-11-24T17:48:50.605Z,4.50
2022-11-24T17:52:12.581Z,4.40
2022-11-24T17:55:34.565Z,4.40
2022-11-24T17:59:00.962Z,4.40
2022-11-24T18:02:23.048Z,4.30
2022-11-24T18:05:45.218Z,4.30
2022-11-24T18:09:07.325Z,4.20
2022-11-24T18:12:29.864Z,4.10
2022-11-24T18:15:55.972Z,4.00
2022-11-24T18:19:18.742Z,3.90
2022-11-24T18:23:04.433Z,3.90
2022-11-24T18:26:23.238Z,3.90
2022-11-24T18:29:46.415Z,3.80
2022-11-24T18:33:10.161Z,3.90
2022-11-24T18:36:33.595Z,3.80
2022-11-24T18:39:55.699Z,3.80
2022-11-24T18:43:18.103Z,3.80
2022-11-24T18:46:40.541Z,3.80
2022-11-24T18:50:02.805Z,3.80
2022-11-24T18:53:28.241Z,3.80
2022-11-24T18:56:50.400Z,3.90
2022-11-24T19:00:13.501Z,3.90
2022-11-24T19:03:48.635Z,3.80
2022-11-24T19:07:12.227Z,3.80
2022-11-24T19:10:39.783Z,3.70
2022-11-24T19:14:07.751Z,3.60
2022-11-24T19:17:30.521Z,3.50
2022-11-24T19:20:53.362Z,3.50
2022-11-24T19:24:16.184Z,3.50
2022-11-24T19:27:38.446Z,3.50
2022-11-24T19:31:05.656Z,3.50
2022-11-24T19:34:27.851Z,3.40
2022-11-24T19:37:50.230Z,3.40
2022-11-24T19:41:14.338Z,3.40
2022-11-24T19:44:36.709Z,3.40
2022-11-24T19:47:59.235Z,3.50
2022-11-24T19:51:27.013Z,3.50
2022-11-24T19:54:50.155Z,3.60
2022-11-24T19:58:12.559Z,3.60
2022-11-24T20:01:39.962Z,3.60
2022-11-24T20:05:02.206Z,3.60
2022-11-24T20:08:24.469Z,3.60
2022-11-24T20:11:46.945Z,3.60
2022-11-24T20:15:09.972Z,3.50
2022-11-24T20:18:37.542Z,3.50
2022-11-24T20:22:03.988Z,3.50
2022-11-24T20:25:26.663Z,3.60
2022-11-24T20:28:49.325Z,3.50
2022-11-24T20:32:17.755Z,3.60
2022-11-24T20:35:39.963Z,3.60
2022-11-24T20:39:16.058Z,3.70
2022-11-24T20:42:38.401Z,3.70
2022-11-24T20:46:12.496Z,3.70
2022-11-24T20:49:34.910Z,3.70
2022-11-24T20:52:57.257Z,3.70
2022-11-24T20:56:25.791Z,3.70
2022-11-24T20:59:48.300Z,3.60
2022-11-24T21:03:10.533Z,3.60
2022-11-24T21:06:32.641Z,3.60
2022-11-24T21:09:55.191Z,3.50
2022-11-24T21:13:17.706Z,3.40
2022-11-24T21:16:42.246Z,3.40
2022-11-24T21:20:05.021Z,3.30
2022-11-24T21:23:28.350Z,3.40
2022-11-24T21:26:53.186Z,3.40
2022-11-24T21:30:16.254Z,3.40
2022-11-24T21:33:43.644Z,3.40
2022-11-24T21:37:05.833Z,3.40
2022-11-24T21:40:30.769Z,3.40
2022-11-24T21:43:56.183Z,3.40
2022-11-24T21:47:21.567Z,3.40
2022-11-24T21:50:43.895Z,3.40
2022-11-24T21:54:06.276Z,3.40
2022-11-24T21:57:28.861Z,3.40
2022-11-24T22:00:51.105Z,3.40
2022-11-24T22:04:13.112Z,3.40
2022-11-24T22:07:35.208Z,3.50
2022-11-24T22:11:03.268Z,3.50
2022-11-24T22:14:25.367Z,3.50
2022-11-24T22:17:47.308Z,3.60
2022-11-24T22:21:12.917Z,3.70
2022-11-24T22:24:34.911Z,3.70
2022-11-24T22:27:58.306Z,3.70
2022-11-24T22:31:28.761Z,3.60
2022-11-24T22:34:50.921Z,3.60
2022-11-24T22:38:12.864Z,3.60
2022-11-24T22:41:35.946Z,3.60
2022-11-24T22:44:57.915Z,3.60
2022-11-24T22:48:19.881Z,3.70
2022-11-24T22:51:42.064Z,3.70
2022-11-24T22:55:04.226Z,3.70
2022-11-24T22:58:26.218Z,3.70
2022-11-24T23:01:48.165Z,3.60
2022-11-24T23:05:10.367Z,3.60
2022-11-24T23:08:34.228Z,3.50
2022-11-24T23:11:56.224Z,3.50
2022-11-24T23:15:18.276Z,3.40
2022-11-24T23:18:41.153Z,3.30
2022-11-24T23:22:03.133Z,3.30
2022-11-24T23:25:25.111Z,3.40
2022-11-24T23:28:47.719Z,3.30
2022-11-24T23:32:09.723Z,3.30
2022-11-24T23:35:32.918Z,3.30
2022-11-24T23:38:54.984Z,3.20
2022-11-24T23:42:16.978Z,3.10
2022-11-24T23:45:38.947Z,3.00
2022-11-24T23:49:01.072Z,3.00
2022-11-24T23:52:23.115Z,3.00
2022-11-24T23:55:55.844Z,3.10
2022-11-24T23:59:18.891Z,3.20
